Saltar para o conteúdo principal

Mêda

ID 1210665 · 40.9689, -7.2569 mapa

Última leitura · 2026-05-09 19:00 (Europe/Lisbon)

Temperatura
8.7 °C
Humidade
94 %
Pressão
1,007.0 hPa
Precipitação
Radiação
500 W/m²
Velocidade do vento
19.1 km/h
Direcção do vento
SW · Sudoeste

Histórico de 24 horas

Hora (Europe/Lisbon) Temperatura Humidade Pressão Chuva Vento Direcção
2026-05-09 19:00 8.7 °C 94 % 1,007.0 19.1 km/h SW
2026-05-09 18:00 10.9 °C 86 % 1,005.6 21.6 km/h SW
2026-05-09 17:00 11.9 °C 91 % 1,004.5 18.0 km/h SE
2026-05-09 16:00 9.8 °C 100 % 1,004.8 22.7 km/h SE
2026-05-09 15:00 9.9 °C 100 % 1,005.0 21.6 km/h E
2026-05-09 14:00 10.5 °C 96 % 1,004.8 25.6 km/h SE
2026-05-09 13:00 10.3 °C 95 % 1,005.3 22.7 km/h E
2026-05-09 12:00 9.6 °C 95 % 1,005.5 20.5 km/h E
2026-05-09 11:00 10.2 °C 90 % 1,005.3 27.4 km/h SE
2026-05-09 10:00 9.7 °C 87 % 1,005.7 21.2 km/h E
2026-05-09 09:00 9.3 °C 90 % 1,005.7 20.9 km/h E
2026-05-09 08:00 8.8 °C 95 % 1,006.1 14.4 km/h E
2026-05-09 07:00 8.7 °C 95 % 1,006.0 14.0 km/h E
2026-05-09 06:00 9.4 °C 93 % 1,006.0 22.0 km/h SE
2026-05-09 05:00 9.3 °C 93 % 1,006.6 14.8 km/h E
2026-05-09 04:00 9.4 °C 91 % 1,006.4 15.5 km/h SE
2026-05-09 03:00 9.6 °C 87 % 1,006.9 16.6 km/h SE
2026-05-09 02:00 10.1 °C 82 % 1,007.2 17.3 km/h SE
2026-05-09 01:00 10.2 °C 80 % 1,007.3 15.5 km/h E
2026-05-09 00:00 10.6 °C 74 % 1,007.5 16.2 km/h E
2026-05-08 23:00 10.6 °C 72 % 1,007.8 13.7 km/h E
2026-05-08 22:00 11.0 °C 70 % 1,007.8 13.3 km/h E
2026-05-08 21:00 11.8 °C 64 % 1,007.6 11.5 km/h E
2026-05-08 20:00 12.7 °C 60 % 1,007.4 4.3 km/h SE